Time;durP1;ratioP1;P1;durP2;ratioP2;P2;SDS_P1;SDS_P2;PMS_P1;PMS_P2;Temp;Humidity;BMP_temperature;BMP_pressure;BME280_temperature;BME280_humidity;BME280_pressure;Samples;Min_cycle;Max_cycle;Signal;HPM_P1;HPM_P2
2023/08/15 00:01:03;;;;;;;13.40;7.18;;;;;;;-145.33;100.00;60416.63;4969414;28;20039;-24
2023/08/15 00:03:29;;;;;;;13.55;7.18;;;;;;;-145.33;100.00;60416.63;4969127;28;20383;-25
2023/08/15 00:05:54;;;;;;;12.27;6.90;;;;;;;-145.33;100.00;60416.63;4969058;28;20027;-26
2023/08/15 00:08:19;;;;;;;15.38;6.90;;;;;;;-145.33;100.00;60416.63;4969068;28;20023;-27
2023/08/15 00:10:45;;;;;;;12.40;6.25;;;;;;;-145.33;100.00;60416.63;4969250;28;20043;-28
2023/08/15 00:13:10;;;;;;;13.30;6.38;;;;;;;-145.33;100.00;60416.63;4969094;28;20026;-26
2023/08/15 00:15:36;;;;;;;8.65;5.50;;;;;;;-145.33;100.00;60416.63;4968420;28;20027;-25
2023/08/15 00:18:01;;;;;;;13.45;5.35;;;;;;;-145.33;100.00;60416.63;4969034;28;20105;-26
2023/08/15 00:20:27;;;;;;;8.35;5.05;;;;;;;-145.33;100.00;60416.63;4968539;28;20027;-24
2023/08/15 00:22:52;;;;;;;8.43;4.35;;;;;;;-145.33;100.00;60416.63;4969006;28;20049;-25
2023/08/15 00:25:18;;;;;;;7.55;4.60;;;;;;;-145.33;100.00;60416.63;4968669;28;20388;-26
2023/08/15 00:27:43;;;;;;;10.02;5.38;;;;;;;-145.33;100.00;60416.63;4968548;28;20031;-24
2023/08/15 00:30:12;;;;;;;12.20;6.53;;;;;;;-145.33;100.00;60416.63;4968812;28;20034;-24
2023/08/15 00:32:37;;;;;;;15.93;8.70;;;;;;;-145.33;100.00;60416.63;4968241;28;20031;-24
2023/08/15 00:35:03;;;;;;;16.85;7.85;;;;;;;-145.33;100.00;60416.63;4968527;28;20090;-25
2023/08/15 00:37:29;;;;;;;12.52;6.50;;;;;;;-145.33;100.00;60416.63;4968518;28;20035;-23
2023/08/15 00:39:55;;;;;;;11.68;6.65;;;;;;;-145.33;100.00;60416.63;4968094;28;20045;-23
2023/08/15 00:42:20;;;;;;;12.35;6.88;;;;;;;-145.33;100.00;60416.63;4968257;28;20038;-23
2023/08/15 00:44:46;;;;;;;9.73;6.00;;;;;;;-145.33;100.00;60416.63;4968088;28;20034;-23
2023/08/15 00:47:12;;;;;;;9.32;6.13;;;;;;;-145.33;100.00;60416.63;4968542;28;20418;-24
2023/08/15 00:49:38;;;;;;;13.63;6.00;;;;;;;-145.33;100.00;60416.63;4968320;28;20027;-23
2023/08/15 00:52:04;;;;;;;11.38;6.53;;;;;;;-145.33;100.00;60416.63;4968198;28;20050;-24
2023/08/15 00:54:30;;;;;;;11.18;5.95;;;;;;;-145.33;100.00;60416.63;4968086;28;20023;-24
2023/08/15 00:56:56;;;;;;;10.80;5.78;;;;;;;-145.33;100.00;60416.63;4968462;28;20034;-23
2023/08/15 00:59:23;;;;;;;10.18;5.90;;;;;;;-145.33;100.00;60416.63;4968212;28;20049;-23
2023/08/15 01:01:49;;;;;;;14.82;6.85;;;;;;;-145.33;100.00;60416.63;4967961;28;20038;-25
2023/08/15 01:04:15;;;;;;;17.70;7.93;;;;;;;-145.33;100.00;60416.63;4967862;28;20042;-25
2023/08/15 01:06:40;;;;;;;15.60;7.85;;;;;;;-145.33;100.00;60416.63;4968023;28;20042;-23
2023/08/15 01:09:06;;;;;;;18.67;8.77;;;;;;;-145.33;100.00;60416.63;4968043;28;20053;-23
2023/08/15 01:11:39;;;;;;;12.77;7.03;;;;;;;-145.33;100.00;60416.63;4967669;28;20088;-23
2023/08/15 01:14:15;;;;;;;16.35;7.57;;;;;;;-145.33;100.00;60416.63;4968024;28;20025;-23
2023/08/15 01:16:43;;;;;;;10.98;6.80;;;;;;;-145.33;100.00;60416.63;4967552;28;20046;-23
2023/08/15 01:19:38;;;;;;;13.02;6.80;;;;;;;-145.33;100.00;60416.63;4967917;28;20031;-23
2023/08/15 01:22:13;;;;;;;15.32;7.20;;;;;;;-145.33;100.00;60416.63;4967583;28;20074;-23
2023/08/15 01:24:39;;;;;;;11.90;7.15;;;;;;;-145.33;100.00;60416.63;4967779;28;20058;-24
2023/08/15 01:27:04;;;;;;;15.52;8.27;;;;;;;-145.33;100.00;60416.63;4967558;28;20069;-24
2023/08/15 01:29:30;;;;;;;15.10;8.38;;;;;;;-145.33;100.00;60416.63;4967653;28;20114;-24
2023/08/15 01:32:08;;;;;;;12.70;7.20;;;;;;;-145.33;100.00;60416.63;4967734;28;20022;-23
2023/08/15 01:34:38;;;;;;;12.32;6.35;;;;;;;-145.33;100.00;60416.63;4967154;28;20153;-24
2023/08/15 01:37:14;;;;;;;8.80;5.05;;;;;;;-145.33;100.00;60416.63;4967591;28;20034;-24
2023/08/15 01:39:42;;;;;;;11.95;4.82;;;;;;;-145.33;100.00;60416.63;4967402;28;20034;-23
2023/08/15 01:42:10;;;;;;;9.02;4.75;;;;;;;-145.33;100.00;60416.63;4967171;28;20030;-24
2023/08/15 01:44:39;;;;;;;8.95;5.40;;;;;;;-145.33;100.00;60416.63;4967444;28;20023;-24
2023/08/15 01:47:04;;;;;;;7.93;5.22;;;;;;;-145.33;100.00;60416.63;4967107;28;20113;-23
2023/08/15 01:49:30;;;;;;;6.63;4.50;;;;;;;-145.33;100.00;60416.63;4967332;28;20489;-23
2023/08/15 01:51:57;;;;;;;11.52;7.03;;;;;;;-145.33;100.00;60416.63;4966416;28;20514;-24
2023/08/15 01:54:22;;;;;;;14.40;8.77;;;;;;;-145.33;100.00;60416.63;4966730;28;20454;-24
2023/08/15 01:56:50;;;;;;;15.07;8.10;;;;;;;-145.33;100.00;60416.63;4967316;28;20126;-32
2023/08/15 01:59:15;;;;;;;15.57;8.07;;;;;;;-145.33;100.00;60416.63;4967006;28;20034;-23
2023/08/15 02:01:40;;;;;;;12.55;7.43;;;;;;;-145.33;100.00;60416.63;4967163;28;20038;-24
2023/08/15 02:04:06;;;;;;;12.40;6.47;;;;;;;-145.33;100.00;60416.63;4967071;28;20036;-23
2023/08/15 02:06:31;;;;;;;9.25;5.65;;;;;;;-145.33;100.00;60416.63;4966824;28;20730;-24
2023/08/15 02:08:57;;;;;;;10.15;6.82;;;;;;;-145.33;100.00;60416.63;4966977;28;20423;-24
2023/08/15 02:11:22;;;;;;;10.90;5.63;;;;;;;-145.33;100.00;60416.63;4966763;28;20034;-24
2023/08/15 02:13:47;;;;;;;9.50;5.15;;;;;;;-145.33;100.00;60416.63;4967047;28;20493;-27
2023/08/15 02:16:13;;;;;;;7.50;4.80;;;;;;;-145.33;100.00;60416.63;4966947;28;20026;-25
2023/08/15 02:18:38;;;;;;;9.48;5.22;;;;;;;-145.33;100.00;60416.63;4966825;28;20114;-25
2023/08/15 02:21:04;;;;;;;7.70;4.60;;;;;;;-145.33;100.00;60416.63;4966823;28;20094;-26
2023/08/15 02:23:29;;;;;;;8.57;5.15;;;;;;;-145.33;100.00;60416.63;4966817;28;20046;-28
2023/08/15 02:25:55;;;;;;;6.68;4.68;;;;;;;-145.33;100.00;60416.63;4966797;28;20093;-26
2023/08/15 02:28:20;;;;;;;7.93;5.07;;;;;;;-145.33;100.00;60416.63;4966553;28;20039;-24
2023/08/15 02:30:46;;;;;;;9.23;5.07;;;;;;;-145.33;100.00;60416.63;4966607;28;20047;-24
2023/08/15 02:33:11;;;;;;;8.38;5.25;;;;;;;-145.33;100.00;60416.63;4966517;28;20426;-23
2023/08/15 02:35:41;;;;;;;9.60;5.93;;;;;;;-145.33;100.00;60416.63;4966379;28;20033;-26
2023/08/15 02:38:07;;;;;;;8.50;6.10;;;;;;;-145.33;100.00;60416.63;4966549;28;20035;-25
2023/08/15 02:40:32;;;;;;;9.77;5.82;;;;;;;-145.33;100.00;60416.63;4966450;28;20042;-24
2023/08/15 02:42:58;;;;;;;10.05;6.07;;;;;;;-145.33;100.00;60416.63;4966517;28;20082;-23
2023/08/15 02:45:23;;;;;;;9.45;6.15;;;;;;;-145.33;100.00;60416.63;4966871;28;20031;-24
2023/08/15 02:47:49;;;;;;;9.50;5.30;;;;;;;-145.33;100.00;60416.63;4966537;28;20553;-25
2023/08/15 02:50:15;;;;;;;9.00;5.32;;;;;;;-145.33;100.00;60416.63;4966589;28;20116;-24
2023/08/15 02:52:41;;;;;;;9.27;5.03;;;;;;;-145.33;100.00;60416.63;4966633;28;20802;-23
2023/08/15 02:55:07;;;;;;;8.27;4.45;;;;;;;-145.33;100.00;60416.63;4966595;28;20034;-24
2023/08/15 02:57:32;;;;;;;7.88;4.70;;;;;;;-145.33;100.00;60416.63;4966554;28;20030;-24
2023/08/15 02:59:57;;;;;;;8.88;4.63;;;;;;;-145.33;100.00;60416.63;4966309;28;20043;-24
2023/08/15 03:02:23;;;;;;;8.57;4.82;;;;;;;-145.33;100.00;60416.63;4966041;28;20174;-24
2023/08/15 03:04:49;;;;;;;9.25;4.68;;;;;;;-145.33;100.00;60416.63;4969363;28;20035;-32
2023/08/15 03:07:14;;;;;;;17.75;5.63;;;;;;;-145.33;100.00;60416.63;4969917;28;20114;-24
2023/08/15 03:09:39;;;;;;;8.55;4.70;;;;;;;-145.33;100.00;60416.63;4970394;28;20038;-24
2023/08/15 03:12:05;;;;;;;8.77;4.60;;;;;;;-145.33;100.00;60416.63;4969373;28;20478;-23
2023/08/15 03:14:33;;;;;;;10.93;5.28;;;;;;;-145.33;100.00;60416.63;4969915;28;20502;-23
2023/08/15 03:17:01;;;;;;;11.23;5.10;;;;;;;-145.33;100.00;60416.63;4969929;28;20042;-24
2023/08/15 03:19:29;;;;;;;8.98;4.85;;;;;;;-145.33;100.00;60416.63;4969762;28;20038;-22
2023/08/15 03:21:54;;;;;;;9.43;5.15;;;;;;;-145.33;100.00;60416.63;4970104;28;20066;-24
2023/08/15 03:24:20;;;;;;;9.50;5.35;;;;;;;-145.33;100.00;60416.63;4969715;28;20022;-25
2023/08/15 03:26:45;;;;;;;6.55;4.35;;;;;;;-145.33;100.00;60416.63;4969875;28;20030;-24
2023/08/15 03:29:10;;;;;;;8.10;5.03;;;;;;;-145.33;100.00;60416.63;4969935;28;20506;-23
2023/08/15 03:31:36;;;;;;;8.90;4.45;;;;;;;-145.33;100.00;60416.63;4969238;28;20500;-24
2023/08/15 03:34:01;;;;;;;8.50;4.60;;;;;;;-145.33;100.00;60416.63;4969597;28;20027;-23
2023/08/15 03:36:27;;;;;;;16.33;4.70;;;;;;;-145.33;100.00;60416.63;4969399;28;20066;-24
2023/08/15 03:38:52;;;;;;;10.20;5.38;;;;;;;-145.33;100.00;60416.63;4969592;28;20823;-24
2023/08/15 03:41:18;;;;;;;16.98;5.07;;;;;;;-145.33;100.00;60416.63;4969583;28;20038;-23
2023/08/15 03:43:43;;;;;;;9.38;4.80;;;;;;;-145.33;100.00;60416.63;4969171;28;20034;-24
2023/08/15 03:46:09;;;;;;;13.20;5.68;;;;;;;-145.33;100.00;60416.63;4969200;28;20127;-23
2023/08/15 03:48:35;;;;;;;17.15;5.60;;;;;;;-145.33;100.00;60416.63;4969325;28;20041;-23
2023/08/15 03:51:01;;;;;;;10.50;5.35;;;;;;;-145.33;100.00;60416.63;4969407;28;20053;-24
2023/08/15 03:53:28;;;;;;;11.43;5.53;;;;;;;-145.33;100.00;60416.63;4969314;28;20050;-23
2023/08/15 03:55:54;;;;;;;12.75;5.28;;;;;;;-145.33;100.00;60416.63;4969450;28;20035;-23
2023/08/15 03:58:20;;;;;;;9.43;4.55;;;;;;;-145.33;100.00;60416.63;4968907;28;20622;-23
2023/08/15 04:00:46;;;;;;;8.68;5.22;;;;;;;-145.33;100.00;60416.63;4969019;28;20132;-23
2023/08/15 04:03:12;;;;;;;19.95;6.97;;;;;;;-145.33;100.00;60416.63;4968862;28;20030;-23
2023/08/15 04:05:38;;;;;;;10.15;5.10;;;;;;;-145.33;100.00;60416.63;4969646;28;20054;-23
2023/08/15 04:08:07;;;;;;;10.35;5.65;;;;;;;-145.33;100.00;60416.63;4968800;28;20050;-24
2023/08/15 04:10:32;;;;;;;9.20;4.75;;;;;;;-145.33;100.00;60416.63;4968668;28;20026;-23
2023/08/15 04:12:57;;;;;;;8.93;5.22;;;;;;;-145.33;100.00;60416.63;4969136;28;20023;-24
2023/08/15 04:15:23;;;;;;;10.73;4.72;;;;;;;-145.33;100.00;60416.63;4967850;28;20458;-24
2023/08/15 04:17:48;;;;;;;7.90;4.85;;;;;;;-145.33;100.00;60416.63;4968903;28;20027;-24
2023/08/15 04:20:14;;;;;;;8.20;4.50;;;;;;;-145.33;100.00;60416.63;4968406;28;20034;-27
2023/08/15 04:22:39;;;;;;;7.45;4.75;;;;;;;-145.33;100.00;60416.63;4968678;28;20538;-24
2023/08/15 04:25:07;;;;;;;9.98;5.38;;;;;;;-145.33;100.00;60416.63;4968721;28;20577;-24
2023/08/15 04:27:32;;;;;;;8.00;4.50;;;;;;;-145.33;100.00;60416.63;4968428;28;20414;-23
2023/08/15 04:29:58;;;;;;;6.88;4.68;;;;;;;-145.33;100.00;60416.63;4968476;28;20495;-24
2023/08/15 04:32:23;;;;;;;8.82;5.18;;;;;;;-145.33;100.00;60416.63;4968502;28;20034;-23
2023/08/15 04:34:49;;;;;;;10.73;4.18;;;;;;;-145.33;100.00;60416.63;4968479;28;20030;-23
2023/08/15 04:37:14;;;;;;;7.53;4.97;;;;;;;-145.33;100.00;60416.63;4968720;28;20410;-24
2023/08/15 04:39:39;;;;;;;7.50;5.05;;;;;;;-145.33;100.00;60416.63;4967991;28;20440;-23
2023/08/15 04:42:05;;;;;;;9.32;5.18;;;;;;;-145.33;100.00;60416.63;4968242;28;20027;-23
2023/08/15 04:44:30;;;;;;;11.85;5.18;;;;;;;-145.33;100.00;60416.63;4968375;28;20031;-23
2023/08/15 04:46:56;;;;;;;8.52;5.22;;;;;;;-145.33;100.00;60416.63;4968448;28;20030;-23
2023/08/15 04:49:21;;;;;;;9.20;4.85;;;;;;;-145.33;100.00;60416.63;4968632;28;20030;-31
2023/08/15 04:51:49;;;;;;;9.98;5.75;;;;;;;-145.33;100.00;60416.63;4968293;28;20058;-23
2023/08/15 04:54:14;;;;;;;7.93;4.90;;;;;;;-145.33;100.00;60416.63;4968051;28;20035;-24
2023/08/15 04:56:40;;;;;;;11.55;4.63;;;;;;;-145.33;100.00;60416.63;4968082;28;20089;-24
2023/08/15 04:59:05;;;;;;;7.35;4.78;;;;;;;-145.33;100.00;60416.63;4968368;28;20150;-25
2023/08/15 05:01:31;;;;;;;8.30;4.82;;;;;;;-145.33;100.00;60416.63;4967757;28;20057;-24
2023/08/15 05:03:56;;;;;;;9.38;4.78;;;;;;;-145.33;100.00;60416.63;4967942;28;20073;-24
2023/08/15 05:06:22;;;;;;;10.60;5.15;;;;;;;-145.33;100.00;60416.63;4967884;28;20089;-24
2023/08/15 05:08:49;;;;;;;12.23;5.40;;;;;;;-145.33;100.00;60416.63;4968234;28;20041;-24
2023/08/15 05:11:15;;;;;;;8.77;5.10;;;;;;;-145.33;100.00;60416.63;4968011;28;20146;-26
2023/08/15 05:13:40;;;;;;;8.23;4.90;;;;;;;-145.33;100.00;60416.63;4967684;28;20886;-25
2023/08/15 05:16:06;;;;;;;8.90;4.50;;;;;;;-145.33;100.00;60416.63;4967782;28;20038;-27
2023/08/15 05:18:31;;;;;;;9.40;4.70;;;;;;;-145.33;100.00;60416.63;4967427;28;20146;-24
2023/08/15 05:20:56;;;;;;;7.82;4.95;;;;;;;-145.33;100.00;60416.63;4967550;28;20421;-24
2023/08/15 05:23:22;;;;;;;10.85;5.60;;;;;;;-145.33;100.00;60416.63;4967530;28;20465;-24
2023/08/15 05:25:47;;;;;;;9.60;4.47;;;;;;;-145.33;100.00;60416.63;4967898;28;20043;-23
2023/08/15 05:28:13;;;;;;;9.82;4.70;;;;;;;-145.33;100.00;60416.63;4967305;28;20026;-24
2023/08/15 05:30:39;;;;;;;9.07;5.35;;;;;;;-145.33;100.00;60416.63;4967254;28;20530;-25
2023/08/15 05:33:04;;;;;;;8.25;5.07;;;;;;;-145.33;100.00;60416.63;4967823;28;20114;-26
2023/08/15 05:35:30;;;;;;;7.70;4.65;;;;;;;-145.33;100.00;60416.63;4966960;28;20488;-23
2023/08/15 05:37:56;;;;;;;10.13;4.90;;;;;;;-145.33;100.00;60416.63;4967783;28;20042;-23
2023/08/15 05:40:21;;;;;;;9.48;5.65;;;;;;;-145.33;100.00;60416.63;4967264;28;20473;-24
2023/08/15 05:42:47;;;;;;;8.88;4.53;;;;;;;-145.33;100.00;60416.63;4967238;28;20026;-23
2023/08/15 05:45:13;;;;;;;8.35;4.95;;;;;;;-145.33;100.00;60416.63;4967448;28;20121;-24
2023/08/15 05:47:38;;;;;;;9.82;4.68;;;;;;;-145.33;100.00;60416.63;4966893;28;20034;-23
2023/08/15 05:50:04;;;;;;;7.75;5.15;;;;;;;-145.33;100.00;60416.63;4967083;28;20037;-27
2023/08/15 05:52:30;;;;;;;7.78;4.82;;;;;;;-145.33;100.00;60416.63;4967131;28;20031;-26
2023/08/15 05:54:55;;;;;;;15.13;5.47;;;;;;;-145.33;100.00;60416.63;4967051;28;20101;-23
2023/08/15 05:57:21;;;;;;;10.77;5.40;;;;;;;-145.33;100.00;60416.63;4967222;28;20113;-27
2023/08/15 05:59:47;;;;;;;9.48;5.43;;;;;;;-145.33;100.00;60416.63;4966861;28;20037;-24
2023/08/15 06:02:13;;;;;;;8.75;4.85;;;;;;;-145.33;100.00;60416.63;4967127;28;20052;-24
2023/08/15 06:04:38;;;;;;;8.85;5.15;;;;;;;-145.33;100.00;60416.63;4966846;28;20035;-23
2023/08/15 06:07:04;;;;;;;9.18;5.32;;;;;;;-145.33;100.00;60416.63;4966685;28;20433;-23
2023/08/15 06:09:29;;;;;;;9.90;5.45;;;;;;;-145.33;100.00;60416.63;4967071;28;20034;-25
2023/08/15 06:11:55;;;;;;;8.32;5.20;;;;;;;-145.33;100.00;60416.63;4966712;28;20498;-23
2023/08/15 06:14:20;;;;;;;10.02;5.28;;;;;;;-145.33;100.00;60416.63;4966880;28;20031;-31
2023/08/15 06:16:47;;;;;;;7.88;5.32;;;;;;;-145.33;100.00;60416.63;4967023;28;20035;-23
2023/08/15 06:19:13;;;;;;;8.98;4.95;;;;;;;-145.33;100.00;60416.63;4967063;28;20035;-23
2023/08/15 06:21:41;;;;;;;8.25;5.05;;;;;;;-145.33;100.00;60416.63;4966751;28;20034;-23
2023/08/15 06:24:08;;;;;;;9.70;5.70;;;;;;;-145.33;100.00;60416.63;4966568;28;20031;-23
2023/08/15 06:26:34;;;;;;;8.93;5.35;;;;;;;-145.33;100.00;60416.63;4966599;28;20447;-23
2023/08/15 06:28:59;;;;;;;11.85;5.43;;;;;;;-145.33;100.00;60416.63;4966422;28;20490;-24
2023/08/15 06:31:24;;;;;;;10.75;5.50;;;;;;;-145.33;100.00;60416.63;4966734;28;20109;-23
2023/08/15 06:33:50;;;;;;;11.98;5.95;;;;;;;-145.33;100.00;60416.63;4966742;28;20118;-28
2023/08/15 06:36:15;;;;;;;11.52;6.93;;;;;;;-145.33;100.00;60416.63;4966637;28;20027;-26
2023/08/15 06:38:41;;;;;;;14.45;7.60;;;;;;;-145.33;100.00;60416.63;4967497;28;20038;-24
2023/08/15 06:41:06;;;;;;;13.70;7.38;;;;;;;-145.33;100.00;60416.63;4970567;28;20410;-23
2023/08/15 06:43:32;;;;;;;11.32;7.03;;;;;;;-145.33;100.00;60416.63;4970384;28;20699;-23
2023/08/15 06:45:57;;;;;;;11.13;5.18;;;;;;;-145.33;100.00;60416.63;4970457;28;20712;-26
2023/08/15 06:48:23;;;;;;;10.93;5.53;;;;;;;-145.33;100.00;60416.63;4970224;28;20054;-24
2023/08/15 06:50:48;;;;;;;8.55;5.63;;;;;;;-145.33;100.00;60416.63;4970102;28;20118;-24
2023/08/15 06:53:13;;;;;;;7.45;4.90;;;;;;;-145.33;100.00;60416.63;4970417;28;20038;-23
2023/08/15 06:55:39;;;;;;;8.50;6.10;;;;;;;-145.33;100.00;60416.63;4970045;28;20125;-24
2023/08/15 06:58:04;;;;;;;13.20;6.25;;;;;;;-145.33;100.00;60416.63;4970398;28;20038;-24
2023/08/15 07:00:30;;;;;;;12.50;5.82;;;;;;;-145.33;100.00;60416.63;4970091;28;20057;-23
2023/08/15 07:02:56;;;;;;;8.80;5.72;;;;;;;-145.33;100.00;60416.63;4970399;28;20055;-23
2023/08/15 07:05:22;;;;;;;10.35;6.07;;;;;;;-145.33;100.00;60416.63;4970053;28;20080;-26
2023/08/15 07:07:47;;;;;;;10.10;6.20;;;;;;;-145.33;100.00;60416.63;4970095;28;20062;-24
2023/08/15 07:10:12;;;;;;;10.75;5.30;;;;;;;-145.33;100.00;60416.63;4969878;28;20458;-24
2023/08/15 07:12:38;;;;;;;9.80;5.90;;;;;;;-145.33;100.00;60416.63;4969936;28;20835;-23
2023/08/15 07:15:04;;;;;;;12.57;7.32;;;;;;;-145.33;100.00;60416.63;4969950;28;20031;-23
2023/08/15 07:17:29;;;;;;;15.88;7.22;;;;;;;-145.33;100.00;60416.63;4970208;28;20026;-23
2023/08/15 07:19:55;;;;;;;13.93;7.90;;;;;;;-145.33;100.00;60416.63;4970028;28;20413;-27
2023/08/15 07:22:21;;;;;;;19.13;8.40;;;;;;;-145.33;100.00;60416.63;4969744;28;20105;-25
2023/08/15 07:24:46;;;;;;;14.32;7.05;;;;;;;-145.33;100.00;60416.63;4969927;28;20030;-24
2023/08/15 07:27:12;;;;;;;8.27;5.70;;;;;;;-145.33;100.00;60416.63;4969813;28;20026;-25
2023/08/15 07:29:37;;;;;;;9.80;5.55;;;;;;;-145.33;100.00;60416.63;4970096;28;20093;-24
2023/08/15 07:32:03;;;;;;;9.05;5.80;;;;;;;-145.33;100.00;60416.63;4968376;28;20034;-23
2023/08/15 07:34:28;;;;;;;10.57;5.95;;;;;;;-145.33;100.00;60416.63;4969510;28;20576;-23
2023/08/15 07:36:53;;;;;;;9.30;5.80;;;;;;;-145.33;100.00;60416.63;4969382;28;20070;-23
2023/08/15 07:39:19;;;;;;;13.73;6.68;;;;;;;-145.33;100.00;60416.63;4969757;28;20035;-25
2023/08/15 07:41:44;;;;;;;12.02;6.43;;;;;;;-145.33;100.00;60416.63;4969683;28;20710;-24
2023/08/15 07:44:10;;;;;;;10.57;5.88;;;;;;;-145.33;100.00;60416.63;4969610;28;20549;-25
2023/08/15 07:46:35;;;;;;;10.43;5.78;;;;;;;-145.33;100.00;60416.63;4969509;28;20022;-24
2023/08/15 07:49:00;;;;;;;11.50;5.85;;;;;;;-145.33;100.00;60416.63;4969443;28;20027;-25
2023/08/15 07:51:26;;;;;;;12.82;5.45;;;;;;;-145.33;100.00;60416.63;4969056;28;20038;-24
2023/08/15 07:53:54;;;;;;;8.68;5.53;;;;;;;-145.33;100.00;60416.63;4969583;28;20124;-29
2023/08/15 07:56:20;;;;;;;11.85;5.57;;;;;;;-145.33;100.00;60416.63;4969055;28;20121;-27
2023/08/15 07:58:45;;;;;;;11.32;5.45;;;;;;;-145.33;100.00;60416.63;4969205;28;20109;-23
2023/08/15 08:01:11;;;;;;;12.48;5.55;;;;;;;-145.33;100.00;60416.63;4969245;28;20038;-24
2023/08/15 08:03:38;;;;;;;11.85;5.50;;;;;;;-145.33;100.00;60416.63;4968727;28;20057;-24
2023/08/15 08:06:04;;;;;;;13.80;5.88;;;;;;;-145.33;100.00;60416.63;4968728;28;20426;-24
2023/08/15 08:08:30;;;;;;;10.10;5.95;;;;;;;-145.33;100.00;60416.63;4968929;28;20043;-23
2023/08/15 08:10:57;;;;;;;11.23;6.05;;;;;;;-145.33;100.00;60416.63;4968772;28;20029;-24
2023/08/15 08:13:22;;;;;;;11.82;6.50;;;;;;;-145.33;100.00;60416.63;4969090;28;20031;-24
2023/08/15 08:15:48;;;;;;;11.07;6.63;;;;;;;-145.33;100.00;60416.63;4968836;28;20030;-26
2023/08/15 08:18:13;;;;;;;10.88;6.47;;;;;;;-145.33;100.00;60416.63;4968946;28;20030;-23
2023/08/15 08:20:39;;;;;;;14.32;7.10;;;;;;;-145.33;100.00;60416.63;4968925;28;20042;-23
2023/08/15 08:23:05;;;;;;;11.48;6.20;;;;;;;-145.33;100.00;60416.63;4968630;28;20324;-23
2023/08/15 08:25:30;;;;;;;10.38;6.55;;;;;;;-145.33;100.00;60416.63;4968702;28;20030;-26
2023/08/15 08:27:58;;;;;;;10.88;6.50;;;;;;;-145.33;100.00;60416.63;4968603;28;20026;-23
2023/08/15 08:30:24;;;;;;;17.52;6.75;;;;;;;-145.33;100.00;60416.63;4968465;28;20030;-26
2023/08/15 08:32:52;;;;;;;13.55;6.47;;;;;;;-145.33;100.00;60416.63;4968886;28;20403;-26
2023/08/15 08:35:25;;;;;;;14.57;6.18;;;;;;;-145.33;100.00;60416.63;4968314;28;20047;-24
2023/08/15 08:37:51;;;;;;;10.85;6.53;;;;;;;-145.33;100.00;60416.63;4968748;28;20037;-24
2023/08/15 08:40:17;;;;;;;15.73;6.80;;;;;;;-145.33;100.00;60416.63;4968033;28;20030;-24
2023/08/15 08:42:43;;;;;;;8.40;5.82;;;;;;;-145.33;100.00;60416.63;4968435;28;20508;-24
2023/08/15 08:45:12;;;;;;;11.35;6.10;;;;;;;-145.33;100.00;60416.63;4968440;28;20142;-23
2023/08/15 08:47:39;;;;;;;14.93;6.45;;;;;;;-145.33;100.00;60416.63;4968004;28;20051;-24
2023/08/15 08:50:09;;;;;;;12.27;6.30;;;;;;;-145.33;100.00;60416.63;4968597;28;20030;-24
2023/08/15 08:52:37;;;;;;;10.63;6.50;;;;;;;-145.33;100.00;60416.63;4968301;28;20037;-23
2023/08/15 08:55:03;;;;;;;11.70;6.80;;;;;;;-145.33;100.00;60416.63;4968247;28;20037;-23
2023/08/15 08:57:35;;;;;;;13.93;6.75;;;;;;;-145.33;100.00;60416.63;4967874;28;20023;-33
2023/08/15 09:00:07;;;;;;;10.70;6.25;;;;;;;-145.33;100.00;60416.63;4967916;28;20086;-24
2023/08/15 09:02:34;;;;;;;8.63;6.18;;;;;;;-145.33;100.00;60416.63;4967455;28;20120;-26
2023/08/15 09:05:01;;;;;;;11.00;6.10;;;;;;;-145.33;100.00;60416.63;4967816;28;20480;-23
2023/08/15 09:07:26;;;;;;;9.35;6.70;;;;;;;-145.33;100.00;60416.63;4968078;28;20058;-24
2023/08/15 09:09:52;;;;;;;8.55;5.95;;;;;;;-145.33;100.00;60416.63;4968026;28;20057;-24
2023/08/15 09:12:38;;;;;;;14.95;6.72;;;;;;;-145.33;100.00;60416.63;4967627;28;20418;-24
2023/08/15 09:15:05;;;;;;;12.40;6.53;;;;;;;-145.33;100.00;60416.63;4968002;28;20557;-25
2023/08/15 09:17:32;;;;;;;10.32;7.15;;;;;;;-145.33;100.00;60416.63;4967541;28;20045;-24
2023/08/15 09:20:16;;;;;;;9.38;6.15;;;;;;;-145.33;100.00;60416.63;4967702;28;20088;-24
2023/08/15 09:22:46;;;;;;;11.20;6.32;;;;;;;-145.33;100.00;60416.63;4967671;28;20498;-24
2023/08/15 09:25:17;;;;;;;13.40;6.18;;;;;;;-145.33;100.00;60416.63;4967278;28;20548;-25
2023/08/15 09:27:45;;;;;;;11.32;6.60;;;;;;;-145.33;100.00;60416.63;4967386;28;20105;-25
2023/08/15 09:30:18;;;;;;;10.07;6.18;;;;;;;-145.33;100.00;60416.63;4967378;28;20110;-27
2023/08/15 09:32:44;;;;;;;10.23;6.50;;;;;;;-145.33;100.00;60416.63;4967882;28;20130;-23
2023/08/15 09:35:14;;;;;;;9.07;6.20;;;;;;;-145.33;100.00;60416.63;4967285;28;20757;-24
2023/08/15 09:37:44;;;;;;;9.20;6.30;;;;;;;-145.33;100.00;60416.63;4967266;28;20035;-23
2023/08/15 09:40:15;;;;;;;9.73;7.13;;;;;;;-145.33;100.00;60416.63;4967503;28;20053;-24
2023/08/15 09:42:40;;;;;;;10.32;6.38;;;;;;;-145.33;100.00;60416.63;4967194;28;20081;-25
2023/08/15 09:45:07;;;;;;;11.10;6.97;;;;;;;-145.33;100.00;60416.63;4967376;28;20039;-25
2023/08/15 09:47:38;;;;;;;10.38;6.43;;;;;;;-145.33;100.00;60416.63;4967591;28;20022;-24
2023/08/15 09:50:05;;;;;;;8.93;6.55;;;;;;;-145.33;100.00;60416.63;4967109;28;20085;-23
2023/08/15 09:52:33;;;;;;;12.00;6.90;;;;;;;-145.33;100.00;60416.63;4967261;28;20034;-23
2023/08/15 09:55:01;;;;;;;11.38;6.80;;;;;;;-145.33;100.00;60416.63;4967034;28;20039;-24
2023/08/15 09:57:26;;;;;;;11.95;7.25;;;;;;;-145.33;100.00;60416.63;4967212;28;20041;-23
2023/08/15 09:59:52;;;;;;;12.32;7.78;;;;;;;-145.33;100.00;60416.63;4967353;28;20030;-23
2023/08/15 10:02:24;;;;;;;11.93;6.68;;;;;;;-145.33;100.00;60416.63;4966965;28;20035;-23
2023/08/15 10:04:57;;;;;;;11.13;6.63;;;;;;;-145.33;100.00;60416.63;4967133;28;20106;-24
2023/08/15 10:07:27;;;;;;;11.02;6.78;;;;;;;-145.33;100.00;60416.63;4966921;28;20054;-24
2023/08/15 10:09:55;;;;;;;10.43;6.82;;;;;;;-145.33;100.00;60416.63;4967242;28;20532;-26
2023/08/15 10:12:24;;;;;;;9.20;6.60;;;;;;;-145.33;100.00;60416.63;4967102;28;20037;-23
2023/08/15 10:14:52;;;;;;;12.70;7.53;;;;;;;-145.33;100.00;60416.63;4966133;28;20117;-23
2023/08/15 10:17:18;;;;;;;10.88;6.68;;;;;;;-145.33;100.00;60416.63;4966774;28;20080;-23
2023/08/15 10:19:48;;;;;;;10.27;6.43;;;;;;;-145.33;100.00;60416.63;4966725;28;20087;-24
2023/08/15 10:22:18;;;;;;;12.00;6.75;;;;;;;-145.33;100.00;60416.63;4966931;28;20042;-24
2023/08/15 10:24:44;;;;;;;13.00;6.68;;;;;;;-145.33;100.00;60416.63;4966790;28;20034;-23
2023/08/15 10:27:11;;;;;;;12.45;7.40;;;;;;;-145.33;100.00;60416.63;4966829;28;20031;-24
2023/08/15 10:29:58;;;;;;;10.30;7.07;;;;;;;-145.33;100.00;60416.63;4966956;28;20118;-23
2023/08/15 10:32:32;;;;;;;11.95;7.07;;;;;;;-145.33;100.00;60416.63;4966928;28;20038;-26
2023/08/15 10:34:58;;;;;;;10.57;6.88;;;;;;;-145.33;100.00;60416.63;4966959;28;20041;-24
2023/08/15 10:37:30;;;;;;;12.50;7.13;;;;;;;-145.33;100.00;60416.63;4966582;28;20026;-30
2023/08/15 10:40:06;;;;;;;9.35;6.80;;;;;;;-145.33;100.00;60416.63;4966711;28;20034;-25
2023/08/15 10:43:00;;;;;;;8.98;7.15;;;;;;;-145.33;100.00;60416.63;4966655;28;20065;-24
2023/08/15 10:45:27;;;;;;;12.75;6.82;;;;;;;-145.33;100.00;60416.63;4966420;28;20030;-23
2023/08/15 10:47:59;;;;;;;15.00;7.05;;;;;;;-145.33;100.00;60416.63;4966814;28;20573;-24
2023/08/15 10:50:24;;;;;;;15.48;7.80;;;;;;;-145.33;100.00;60416.63;4966829;28;20073;-27
2023/08/15 10:53:01;;;;;;;11.85;6.93;;;;;;;-145.33;100.00;60416.63;4966662;28;20023;-25
2023/08/15 10:55:29;;;;;;;16.98;7.28;;;;;;;-145.33;100.00;60416.63;4966249;28;20054;-23
2023/08/15 10:58:01;;;;;;;12.35;7.28;;;;;;;-145.33;100.00;60416.63;4966680;28;20019;-26
2023/08/15 11:00:26;;;;;;;12.52;6.47;;;;;;;-145.33;100.00;60416.63;4966069;28;20023;-24
2023/08/15 11:02:53;;;;;;;11.80;7.35;;;;;;;-145.33;100.00;60416.63;4966384;28;20031;-24